createdAt,value
2022-11-19T00:00:12.701Z,98440.47
2022-11-19T00:02:41.454Z,98451.44
2022-11-19T00:05:10.370Z,98453.72
2022-11-19T00:07:39.204Z,98449.72
2022-11-19T00:10:08.757Z,98461.09
2022-11-19T00:13:00.422Z,98455.00
2022-11-19T00:15:30.807Z,98454.81
2022-11-19T00:18:00.606Z,98455.38
2022-11-19T00:20:30.294Z,98451.56
2022-11-19T00:22:59.372Z,98449.72
2022-11-19T00:25:31.123Z,98455.66
2022-11-19T00:28:00.638Z,98448.22
2022-11-19T00:30:47.511Z,98448.81
2022-11-19T00:33:17.372Z,98452.47
2022-11-19T00:35:46.094Z,98460.00
2022-11-19T00:38:14.759Z,98463.81
2022-11-19T00:40:44.350Z,98464.00
2022-11-19T00:43:30.724Z,98469.81
2022-11-19T00:46:00.841Z,98479.59
2022-11-19T00:48:29.645Z,98482.44
2022-11-19T00:50:58.418Z,98482.81
2022-11-19T00:53:27.554Z,98487.59
2022-11-19T00:55:56.397Z,98481.84
2022-11-19T00:58:25.174Z,98485.34
2022-11-19T01:00:53.936Z,98490.09
2022-11-19T01:03:25.343Z,98491.59
2022-11-19T01:05:54.532Z,98488.47
2022-11-19T01:08:23.824Z,98486.84
2022-11-19T01:10:52.630Z,98498.66
2022-11-19T01:13:36.888Z,98499.34
2022-11-19T01:16:09.232Z,98501.63
2022-11-19T01:18:42.377Z,98499.25
2022-11-19T01:21:13.456Z,98498.88
2022-11-19T01:23:44.648Z,98500.97
2022-11-19T01:26:14.859Z,98490.56
2022-11-19T01:28:44.547Z,98497.94
2022-11-19T01:31:16.511Z,98492.72
2022-11-19T01:33:47.052Z,98495.25
2022-11-19T01:36:18.509Z,98495.25
2022-11-19T01:38:50.911Z,98496.91
2022-11-19T01:41:20.709Z,98500.81
2022-11-19T01:43:53.036Z,98499.50
2022-11-19T01:46:24.834Z,98508.63
2022-11-19T01:49:00.098Z,98508.53
2022-11-19T01:51:38.306Z,98516.69
2022-11-19T01:54:13.880Z,98519.25
2022-11-19T01:56:42.869Z,98528.53
2022-11-19T01:59:19.481Z,98532.09
2022-11-19T02:01:48.619Z,98535.22
2022-11-19T02:04:21.776Z,98537.97
2022-11-19T02:06:50.661Z,98532.16
2022-11-19T02:09:20.493Z,98533.34
2022-11-19T02:12:18.062Z,98532.66
2022-11-19T02:15:13.697Z,98530.38
2022-11-19T02:18:13.261Z,98533.03
2022-11-19T02:21:20.471Z,98523.81
2022-11-19T02:24:39.071Z,98528.78
2022-11-19T02:27:52.644Z,98532.81
2022-11-19T02:30:22.863Z,98532.16
2022-11-19T02:33:07.919Z,98530.53
2022-11-19T02:35:51.410Z,98533.06
2022-11-19T02:38:34.896Z,98537.97
2022-11-19T02:41:28.520Z,98535.84
2022-11-19T02:44:21.720Z,98537.53
2022-11-19T02:46:55.191Z,98538.03
2022-11-19T02:49:31.745Z,98546.16
2022-11-19T02:52:01.748Z,98542.91
2022-11-19T02:54:30.565Z,98539.84
2022-11-19T02:56:59.959Z,98533.63
2022-11-19T02:59:56.138Z,98534.09
2022-11-19T03:02:49.500Z,98530.97
2022-11-19T03:05:26.791Z,98533.88
2022-11-19T03:07:55.717Z,98532.44
2022-11-19T03:10:31.667Z,98545.38
2022-11-19T03:13:29.896Z,98536.19
2022-11-19T03:16:17.297Z,98542.56
2022-11-19T03:18:56.565Z,98545.19
2022-11-19T03:21:34.789Z,98556.06
2022-11-19T03:24:12.803Z,98559.00
2022-11-19T03:26:48.268Z,98564.75
2022-11-19T03:29:18.416Z,98563.59
2022-11-19T03:31:54.682Z,98569.22
2022-11-19T03:34:30.082Z,98569.22
2022-11-19T03:37:02.973Z,98574.13
2022-11-19T03:39:33.214Z,98567.25
2022-11-19T03:42:02.444Z,98582.69
2022-11-19T03:44:40.104Z,98583.31
2022-11-19T03:47:14.919Z,98578.44
2022-11-19T03:49:52.622Z,98575.16
2022-11-19T03:52:22.886Z,98577.09
2022-11-19T03:54:51.864Z,98582.84
2022-11-19T03:57:24.974Z,98588.75
2022-11-19T03:59:53.663Z,98593.19
2022-11-19T04:02:22.751Z,98594.81
2022-11-19T04:04:52.848Z,98593.16
2022-11-19T04:07:24.380Z,98589.91
2022-11-19T04:09:53.097Z,98584.97
2022-11-19T04:12:24.606Z,98583.34
2022-11-19T04:14:54.183Z,98583.66
2022-11-19T04:17:22.973Z,98589.25
2022-11-19T04:19:53.164Z,98594.47
2022-11-19T04:22:21.916Z,98603.16
2022-11-19T04:24:50.564Z,98600.72
2022-11-19T04:27:19.259Z,98595.13
2022-11-19T04:29:48.087Z,98596.13
2022-11-19T04:32:17.283Z,98599.69
2022-11-19T04:34:46.243Z,98597.25
2022-11-19T04:37:16.407Z,98604.28
2022-11-19T04:39:45.344Z,98599.69
2022-11-19T04:42:14.074Z,98601.63
2022-11-19T04:44:42.793Z,98602.13
2022-11-19T04:47:11.670Z,98602.97
2022-11-19T04:49:40.366Z,98605.41
2022-11-19T04:52:09.080Z,98603.59
2022-11-19T04:54:39.364Z,98604.88
2022-11-19T04:57:08.101Z,98603.75
2022-11-19T04:59:36.835Z,98599.28
2022-11-19T05:02:05.610Z,98603.88
2022-11-19T05:04:34.500Z,98606.84
2022-11-19T05:07:04.412Z,98606.19
2022-11-19T05:09:33.480Z,98600.44
2022-11-19T05:12:03.626Z,98606.69
2022-11-19T05:14:34.755Z,98603.09
2022-11-19T05:17:03.489Z,98597.84
2022-11-19T05:19:32.613Z,98605.06
2022-11-19T05:22:01.985Z,98609.78
2022-11-19T05:24:31.008Z,98604.69
2022-11-19T05:26:59.882Z,98612.56
2022-11-19T05:29:31.137Z,98612.56
2022-11-19T05:32:00.919Z,98613.34
2022-11-19T05:34:29.717Z,98626.41
2022-11-19T05:36:58.663Z,98628.75
2022-11-19T05:39:27.871Z,98628.09
2022-11-19T05:41:56.983Z,98632.97
2022-11-19T05:44:26.634Z,98630.16
2022-11-19T05:46:59.837Z,98642.31
2022-11-19T05:49:28.672Z,98637.50
2022-11-19T05:51:57.902Z,98635.88
2022-11-19T05:54:26.863Z,98638.81
2022-11-19T05:56:56.278Z,98638.84
2022-11-19T05:59:26.085Z,98637.50
2022-11-19T06:01:57.355Z,98646.34
2022-11-19T06:04:26.452Z,98646.03
2022-11-19T06:06:55.198Z,98645.41
2022-11-19T06:09:24.517Z,98647.53
2022-11-19T06:11:53.402Z,98655.00
2022-11-19T06:14:24.878Z,98650.53
2022-11-19T06:16:58.097Z,98656.22
2022-11-19T06:19:28.119Z,98660.09
2022-11-19T06:21:57.474Z,98669.16
2022-11-19T06:24:26.575Z,98664.44
2022-11-19T06:26:55.307Z,98661.81
2022-11-19T06:29:24.270Z,98668.41
2022-11-19T06:31:53.028Z,98674.38
2022-11-19T06:34:23.447Z,98678.47
2022-11-19T06:36:53.672Z,98679.66
2022-11-19T06:39:22.783Z,98684.25
2022-11-19T06:41:51.951Z,98687.25
2022-11-19T06:44:20.606Z,98685.59
2022-11-19T06:46:49.277Z,98690.44
2022-11-19T06:49:20.272Z,98687.88
2022-11-19T06:51:50.836Z,98689.81
2022-11-19T06:54:19.591Z,98684.25
2022-11-19T06:56:48.534Z,98691.66
2022-11-19T06:59:17.805Z,98691.22
2022-11-19T07:01:49.675Z,98696.69
2022-11-19T07:04:18.764Z,98697.25
2022-11-19T07:06:51.320Z,98697.31
2022-11-19T07:09:20.292Z,98696.38
2022-11-19T07:11:50.158Z,98707.88
2022-11-19T07:14:19.260Z,98700.38
2022-11-19T07:16:48.148Z,98695.00
2022-11-19T07:19:17.577Z,98700.75
2022-11-19T07:21:46.665Z,98708.59
2022-11-19T07:24:18.885Z,98704.88
2022-11-19T07:26:47.681Z,98707.94
2022-11-19T07:29:17.922Z,98704.38
2022-11-19T07:31:50.514Z,98688.66
2022-11-19T07:34:19.894Z,98690.28
2022-11-19T07:36:49.474Z,98689.84
2022-11-19T07:39:20.102Z,98685.28
2022-11-19T07:42:06.868Z,98681.50
2022-11-19T07:44:35.792Z,98681.88
2022-11-19T07:47:05.451Z,98689.03
2022-11-19T07:49:34.485Z,98685.13
2022-11-19T07:52:03.397Z,98679.59
2022-11-19T07:54:33.904Z,98676.00
2022-11-19T07:57:02.762Z,98676.66
2022-11-19T07:59:33.163Z,98689.13
2022-11-19T08:02:02.234Z,98688.81
2022-11-19T08:04:32.042Z,98692.09
2022-11-19T08:07:03.382Z,98691.13
2022-11-19T08:09:34.314Z,98695.06
2022-11-19T08:12:03.396Z,98691.63
2022-11-19T08:14:32.577Z,98688.03
2022-11-19T08:17:21.148Z,98696.06
2022-11-19T08:19:50.633Z,98687.28
2022-11-19T08:22:20.863Z,98687.66
2022-11-19T08:24:51.180Z,98690.28
2022-11-19T08:27:20.118Z,98688.19
2022-11-19T08:29:49.702Z,98685.91
2022-11-19T08:32:19.017Z,98683.63
2022-11-19T08:34:50.775Z,98687.56
2022-11-19T08:37:19.583Z,98677.25
2022-11-19T08:39:48.384Z,98678.44
2022-11-19T08:42:38.517Z,98683.03
2022-11-19T08:45:10.379Z,98674.50
2022-11-19T08:47:41.052Z,98666.13
2022-11-19T08:50:11.503Z,98669.56
2022-11-19T08:52:40.422Z,98671.53
2022-11-19T08:55:15.538Z,98668.28
2022-11-19T08:57:49.789Z,98667.81
2022-11-19T09:00:21.471Z,98665.66
2022-11-19T09:02:50.760Z,98667.63
2022-11-19T09:05:19.882Z,98669.25
2022-11-19T09:07:49.211Z,98671.59
2022-11-19T09:10:19.349Z,98672.88
2022-11-19T09:12:50.559Z,98677.31
2022-11-19T09:15:19.689Z,98679.94
2022-11-19T09:17:48.739Z,98676.84
2022-11-19T09:20:20.318Z,98678.97
2022-11-19T09:22:52.615Z,98679.31
2022-11-19T09:25:22.376Z,98680.94
2022-11-19T09:27:56.120Z,98678.50
2022-11-19T09:30:26.165Z,98678.19
2022-11-19T09:32:56.229Z,98682.59
2022-11-19T09:35:26.297Z,98667.66
2022-11-19T09:37:55.638Z,98666.69
2022-11-19T09:40:25.444Z,98667.19
2022-11-19T09:43:14.990Z,98670.28
2022-11-19T09:46:02.195Z,98670.94
2022-11-19T09:48:37.097Z,98682.44
2022-11-19T09:51:12.464Z,98681.97
2022-11-19T09:53:50.927Z,98667.31
2022-11-19T09:56:31.360Z,98671.94
2022-11-19T09:59:08.742Z,98673.72
2022-11-19T10:01:39.841Z,98666.66
2022-11-19T10:04:13.691Z,98667.50
2022-11-19T10:07:01.684Z,98671.28
2022-11-19T10:10:00.135Z,98671.09
2022-11-19T10:12:57.854Z,98670.75
2022-11-19T10:15:43.109Z,98679.28
2022-11-19T10:18:28.608Z,98682.75
2022-11-19T10:21:08.577Z,98679.94
2022-11-19T10:23:51.469Z,98684.03
2022-11-19T10:26:28.057Z,98680.59
2022-11-19T10:28:59.596Z,98679.78
2022-11-19T10:31:40.543Z,98678.44
2022-11-19T10:34:19.315Z,98676.97
2022-11-19T10:36:57.892Z,98679.78
2022-11-19T10:39:36.929Z,98668.59
2022-11-19T10:42:20.923Z,98670.91
2022-11-19T10:44:57.807Z,98665.63
2022-11-19T10:47:39.980Z,98667.28
2022-11-19T10:50:17.744Z,98661.03
2022-11-19T10:52:53.137Z,98662.66
2022-11-19T10:55:29.454Z,98651.50
2022-11-19T10:58:12.656Z,98659.34
2022-11-19T11:00:44.818Z,98658.03
2022-11-19T11:03:24.624Z,98656.72
2022-11-19T11:06:02.091Z,98658.69
2022-11-19T11:08:31.583Z,98650.63
2022-11-19T11:11:02.237Z,98649.78
2022-11-19T11:13:56.569Z,98650.00
2022-11-19T11:16:39.643Z,98641.44
2022-11-19T11:19:16.319Z,98635.69
2022-11-19T11:21:47.089Z,98635.16
2022-11-19T11:24:16.287Z,98629.75
2022-11-19T11:26:44.948Z,98631.72
2022-11-19T11:29:28.692Z,98629.75
2022-11-19T11:31:57.456Z,98627.94
2022-11-19T11:34:43.917Z,98624.50
2022-11-19T11:37:13.471Z,98626.75
2022-11-19T11:39:44.337Z,98628.41
2022-11-19T11:42:20.439Z,98624.94
2022-11-19T11:44:55.883Z,98625.13
2022-11-19T11:47:30.177Z,98620.31
2022-11-19T11:50:10.112Z,98620.31
2022-11-19T11:52:45.281Z,98627.91
2022-11-19T11:55:18.117Z,98627.41
2022-11-19T11:57:56.858Z,98615.38
2022-11-19T12:00:38.896Z,98619.97
2022-11-19T12:03:11.053Z,98613.06
2022-11-19T12:05:56.019Z,98617.50
2022-11-19T12:08:50.353Z,98616.00
2022-11-19T12:11:27.685Z,98616.19
2022-11-19T12:14:09.561Z,98610.22
2022-11-19T12:17:01.198Z,98613.16
2022-11-19T12:19:49.054Z,98611.19
2022-11-19T12:22:33.965Z,98605.09
2022-11-19T12:25:31.459Z,98600.03
2022-11-19T12:28:27.561Z,98595.22
2022-11-19T12:31:13.295Z,98591.47
2022-11-19T12:34:04.542Z,98591.13
2022-11-19T12:36:48.941Z,98591.81
2022-11-19T12:39:41.601Z,98588.81
2022-11-19T12:42:50.416Z,98589.81
2022-11-19T12:45:37.435Z,98589.38
2022-11-19T12:48:37.762Z,98585.56
2022-11-19T12:51:16.005Z,98571.09
2022-11-19T12:54:34.572Z,98584.56
2022-11-19T12:57:34.982Z,98581.63
2022-11-19T13:00:15.340Z,98574.09
2022-11-19T13:03:07.827Z,98574.78
2022-11-19T13:05:47.538Z,98577.56
2022-11-19T13:08:24.178Z,98575.59
2022-11-19T13:11:06.060Z,98574.63
2022-11-19T13:13:41.600Z,98577.41
2022-11-19T13:16:15.693Z,98571.34
2022-11-19T13:18:49.608Z,98571.22
2022-11-19T13:21:38.525Z,98570.34
2022-11-19T13:24:20.176Z,98567.72
2022-11-19T13:26:52.102Z,98565.59
2022-11-19T13:29:44.143Z,98563.03
2022-11-19T13:32:21.531Z,98567.09
2022-11-19T13:35:05.339Z,98568.59
2022-11-19T13:37:56.872Z,98568.41
2022-11-19T13:40:35.609Z,98569.81
2022-11-19T13:43:32.424Z,98566.72
2022-11-19T13:46:18.070Z,98563.72
2022-11-19T13:48:57.487Z,98566.50
2022-11-19T13:51:34.632Z,98564.03
2022-11-19T13:54:07.548Z,98558.09
2022-11-19T13:56:43.960Z,98564.97
2022-11-19T13:59:36.800Z,98564.72
2022-11-19T14:03:02.756Z,98572.66
2022-11-19T14:06:00.484Z,98562.78
2022-11-19T14:08:52.825Z,98573.28
2022-11-19T14:11:47.364Z,98572.84
2022-11-19T14:14:55.298Z,98576.59
2022-11-19T14:18:01.359Z,98567.72
2022-11-19T14:20:58.030Z,98574.25
2022-11-19T14:23:59.262Z,98579.81
2022-11-19T14:27:17.292Z,98583.47
2022-11-19T14:30:08.351Z,98583.16
2022-11-19T14:32:46.995Z,98578.38
2022-11-19T14:35:44.009Z,98583.63
2022-11-19T14:38:37.689Z,98582.47
2022-11-19T14:41:32.927Z,98581.50
2022-11-19T14:44:14.783Z,98589.38
2022-11-19T14:46:50.115Z,98583.31
2022-11-19T14:49:38.992Z,98576.59
2022-11-19T14:52:22.815Z,98574.50
2022-11-19T14:54:58.296Z,98585.19
2022-11-19T14:57:32.456Z,98576.19
2022-11-19T15:00:05.232Z,98578.16
2022-11-19T15:02:45.892Z,98573.59
2022-11-19T15:05:22.615Z,98580.13
2022-11-19T15:07:56.459Z,98583.56
2022-11-19T15:10:48.428Z,98580.63
2022-11-19T15:13:36.890Z,98576.38
2022-11-19T15:16:14.349Z,98577.66
2022-11-19T15:19:32.548Z,98578.00
2022-11-19T15:22:45.996Z,98585.59
2022-11-19T15:25:38.763Z,98576.75
2022-11-19T15:28:33.511Z,98582.16
2022-11-19T15:31:36.197Z,98581.97
2022-11-19T15:34:49.340Z,98582.16
2022-11-19T15:37:34.250Z,98580.69
2022-11-19T15:40:04.365Z,98588.91
2022-11-19T15:42:43.820Z,98586.94
2022-11-19T15:45:21.058Z,98586.28
2022-11-19T15:47:57.432Z,98589.06
2022-11-19T15:50:29.138Z,98583.63
2022-11-19T15:53:04.296Z,98581.81
2022-11-19T15:55:33.650Z,98581.69
2022-11-19T15:58:09.951Z,98590.88
2022-11-19T16:00:47.457Z,98590.38
2022-11-19T16:03:17.979Z,98587.59
2022-11-19T16:06:03.398Z,98590.88
2022-11-19T16:08:33.950Z,98588.44
2022-11-19T16:11:22.879Z,98591.38
2022-11-19T16:14:10.362Z,98584.66
2022-11-19T16:17:00.131Z,98593.19
2022-11-19T16:19:31.526Z,98585.78
2022-11-19T16:22:06.365Z,98588.44
2022-11-19T16:24:52.936Z,98582.69
2022-11-19T16:27:26.264Z,98587.59
2022-11-19T16:29:56.535Z,98579.91
2022-11-19T16:32:28.785Z,98581.19
2022-11-19T16:35:12.802Z,98573.50
2022-11-19T16:37:43.833Z,98571.38
2022-11-19T16:40:18.338Z,98573.31
2022-11-19T16:42:54.055Z,98572.53
2022-11-19T16:45:28.390Z,98568.59
2022-11-19T16:47:59.447Z,98567.25
2022-11-19T16:50:32.748Z,98568.25
2022-11-19T16:53:05.637Z,98564.66
2022-11-19T16:55:50.921Z,98572.81
2022-11-19T16:58:26.591Z,98575.28
2022-11-19T17:00:59.647Z,98575.44
2022-11-19T17:03:39.692Z,98578.38
2022-11-19T17:06:21.106Z,98578.19
2022-11-19T17:09:01.136Z,98582.97
2022-11-19T17:12:10.183Z,98578.88
2022-11-19T17:14:53.102Z,98578.41
2022-11-19T17:17:40.702Z,98577.41
2022-11-19T17:20:49.840Z,98575.75
2022-11-19T17:23:21.880Z,98582.16
2022-11-19T17:25:55.664Z,98577.06
2022-11-19T17:28:38.225Z,98575.75
2022-11-19T17:31:16.585Z,98576.91
2022-11-19T17:33:54.502Z,98585.44
2022-11-19T17:36:25.935Z,98588.22
2022-11-19T17:38:55.582Z,98589.50
2022-11-19T17:41:44.238Z,98592.41
2022-11-19T17:44:35.753Z,98593.38
2022-11-19T17:47:21.178Z,98600.63
2022-11-19T17:49:51.322Z,98603.78
2022-11-19T17:52:25.963Z,98607.38
2022-11-19T17:54:58.248Z,98606.84
2022-11-19T17:57:28.419Z,98606.19
2022-11-19T17:59:57.208Z,98607.03
2022-11-19T18:02:26.629Z,98607.38
2022-11-19T18:04:56.221Z,98607.22
2022-11-19T18:07:25.666Z,98610.81
2022-11-19T18:09:54.725Z,98609.09
2022-11-19T18:12:23.503Z,98614.16
2022-11-19T18:14:56.743Z,98614.97
2022-11-19T18:17:29.220Z,98620.03
2022-11-19T18:19:58.005Z,98619.06
2022-11-19T18:22:26.861Z,98625.03
2022-11-19T18:24:57.054Z,98622.75
2022-11-19T18:27:26.007Z,98625.84
2022-11-19T18:29:56.264Z,98628.19
2022-11-19T18:32:24.996Z,98627.41
2022-11-19T18:34:57.929Z,98629.97
2022-11-19T18:37:30.137Z,98640.44
2022-11-19T18:39:59.223Z,98630.25
2022-11-19T18:42:28.500Z,98637.44
2022-11-19T18:44:57.589Z,98631.47
2022-11-19T18:47:26.503Z,98637.75
2022-11-19T18:49:55.921Z,98634.03
2022-11-19T18:52:24.626Z,98636.28
2022-11-19T18:54:54.051Z,98634.66
2022-11-19T18:57:22.746Z,98630.69
2022-11-19T18:59:51.563Z,98630.34
2022-11-19T19:02:21.961Z,98628.78
2022-11-19T19:04:51.211Z,98634.53
2022-11-19T19:07:20.278Z,98633.22
2022-11-19T19:09:49.040Z,98626.34
2022-11-19T19:12:19.102Z,98632.13
2022-11-19T19:14:51.709Z,98631.97
2022-11-19T19:17:22.502Z,98631.16
2022-11-19T19:19:51.528Z,98633.63
2022-11-19T19:22:20.786Z,98632.09
2022-11-19T19:24:52.676Z,98633.00
2022-11-19T19:27:25.680Z,98635.94
2022-11-19T19:29:54.468Z,98637.97
2022-11-19T19:32:24.690Z,98629.13
2022-11-19T19:34:53.425Z,98636.69
2022-11-19T19:37:22.139Z,98636.81
2022-11-19T19:39:50.927Z,98630.97
2022-11-19T19:42:19.783Z,98633.13
2022-11-19T19:44:48.855Z,98642.16
2022-11-19T19:47:17.734Z,98645.44
2022-11-19T19:49:48.799Z,98637.44
2022-11-19T19:52:17.694Z,98640.81
2022-11-19T19:54:46.985Z,98640.53
2022-11-19T19:57:16.849Z,98641.22
2022-11-19T19:59:45.868Z,98638.69
2022-11-19T20:02:16.079Z,98639.63
2022-11-19T20:04:46.756Z,98647.69
2022-11-19T20:07:16.252Z,98642.56
2022-11-19T20:09:45.015Z,98640.91
2022-11-19T20:12:14.357Z,98644.41
2022-11-19T20:14:43.508Z,98640.53
2022-11-19T20:20:27.692Z,98643.19
2022-11-19T20:22:57.613Z,98654.75
2022-11-19T20:25:26.747Z,98645.72
2022-11-19T20:27:55.545Z,98648.75
2022-11-19T20:30:24.316Z,98649.94
2022-11-19T20:32:53.574Z,98649.00
2022-11-19T20:35:23.912Z,98658.06
2022-11-19T20:37:54.506Z,98664.00
2022-11-19T20:40:24.478Z,98662.97
2022-11-19T20:43:10.898Z,98658.41
2022-11-19T20:45:40.103Z,98646.00
2022-11-19T20:48:09.017Z,98648.72
2022-11-19T20:50:38.148Z,98648.41
2022-11-19T20:53:08.867Z,98644.22
2022-11-19T20:55:53.122Z,98657.81
2022-11-19T20:58:28.831Z,98654.53
2022-11-19T21:01:03.157Z,98651.28
2022-11-19T21:03:36.720Z,98650.06
2022-11-19T21:06:09.833Z,98651.69
2022-11-19T21:08:40.254Z,98647.47
2022-11-19T21:11:16.524Z,98651.06
2022-11-19T21:13:46.903Z,98647.88
2022-11-19T21:16:19.398Z,98637.41
2022-11-19T21:18:51.449Z,98643.81
2022-11-19T21:21:24.451Z,98637.28
2022-11-19T21:23:56.155Z,98639.38
2022-11-19T21:26:27.314Z,98638.34
2022-11-19T21:28:58.407Z,98626.75
2022-11-19T21:31:38.720Z,98639.63
2022-11-19T21:34:09.898Z,98632.38
2022-11-19T21:36:40.244Z,98638.84
2022-11-19T21:39:12.420Z,98633.53
2022-11-19T21:41:41.523Z,98641.91
2022-11-19T21:44:11.939Z,98640.38
2022-11-19T21:46:45.261Z,98633.25
2022-11-19T21:49:14.509Z,98632.50
2022-11-19T21:51:43.628Z,98635.78
2022-11-19T21:54:13.937Z,98638.59
2022-11-19T21:56:43.469Z,98634.84
2022-11-19T21:59:12.260Z,98638.84
2022-11-19T22:01:40.947Z,98639.47
2022-11-19T22:04:09.751Z,98636.69
2022-11-19T22:06:38.454Z,98633.03
2022-11-19T22:09:07.194Z,98632.78
2022-11-19T22:11:37.394Z,98630.72
2022-11-19T22:14:09.587Z,98633.19
2022-11-19T22:16:40.934Z,98625.94
2022-11-19T22:19:24.662Z,98627.44
2022-11-19T22:21:53.539Z,98630.88
2022-11-19T22:24:22.288Z,98624.75
2022-11-19T22:26:52.681Z,98621.91
2022-11-19T22:29:21.733Z,98623.13
2022-11-19T22:31:50.533Z,98623.50
2022-11-19T22:34:19.268Z,98623.50
2022-11-19T22:36:48.130Z,98610.94
2022-11-19T22:39:18.571Z,98612.44
2022-11-19T22:41:47.450Z,98609.72
2022-11-19T22:44:17.673Z,98609.81
2022-11-19T22:46:47.176Z,98602.41
2022-11-19T22:49:16.035Z,98608.91
2022-11-19T22:51:44.780Z,98607.22
2022-11-19T22:54:15.344Z,98606.72
2022-11-19T22:56:44.294Z,98605.31
2022-11-19T22:59:13.594Z,98607.47
2022-11-19T23:01:43.717Z,98605.22
2022-11-19T23:04:16.273Z,98600.66
2022-11-19T23:06:45.320Z,98604.88
2022-11-19T23:09:14.036Z,98608.25
2022-11-19T23:12:00.279Z,98594.41
2022-11-19T23:14:30.068Z,98598.88
2022-11-19T23:17:00.305Z,98595.78
2022-11-19T23:19:29.159Z,98598.00
2022-11-19T23:21:57.846Z,98596.66
2022-11-19T23:24:26.628Z,98592.94
2022-11-19T23:26:55.472Z,98591.59
2022-11-19T23:29:24.211Z,98590.84
2022-11-19T23:31:52.983Z,98585.16
2022-11-19T23:34:23.098Z,98585.16
2022-11-19T23:36:51.874Z,98591.06
2022-11-19T23:39:20.934Z,98594.41
2022-11-19T23:41:50.003Z,98592.72
2022-11-19T23:44:18.822Z,98586.81
2022-11-19T23:46:47.634Z,98592.56
2022-11-19T23:49:16.336Z,98584.56
2022-11-19T23:51:46.620Z,98585.31
2022-11-19T23:54:16.311Z,98581.13
2022-11-19T23:56:46.731Z,98581.88
2022-11-19T23:59:15.503Z,98578.28
